Jazz CRJ9 at Vancouver on Aug 27th 2021, hard landing

Last Update: September 27, 2021 / 17:28:55 GMT/Zulu time

Bookmark this article
Incident Facts

Date of incident
Aug 27, 2021

Classification
Accident

Flight number
QK-8485

Aircraft Registration
C-FOJZ

ICAO Type Designator
CRJ9

Airport ICAO Code
CYVR

On a Jazz Canadair CRJ-900, registration C-FOJZ performing flight QK-8485 from Edmonton,AB to Vancouver,BC (Canada) with 58 passengers and 4 crew, the first officer was pilot flying, the captain was conducting a check ride and was pilot monitoring. Upon landing on Vancouver's runway 08L the flight data recorders recorded a vertical acceleration of +2.789G. The aircraft rolled out without further incident and taxied to the apron, but were unable to start the APU. After the flight crew shut the aircraft down they realized one flight attendant had received serious and the other minor injuries in the touch down.

The Canadian TSB reported the flight attendant seated in the aft jump seat during landing received serious injuries, received first aid and was transported to a local hospital. The other flight attendant received minor injuries. The touchdown required a high load landing event (HLLE) inspection, which determined that both main landing gear struts had been bottomed out. The aircraft remained on the ground for 6 days until the HLLE was completed, the subsequent maintenance included replacement of both main gear struts. The aircraft has been returned to service in the meantime.



Metars:
CYVR 270600Z 09007KT 20SM SCT032 BKN073 16/14 A3000 RMK SC3AC3 SLP161=
CYVR 270500Z 09009KT 20SM BKN032 OVC073 16/14 A3000 RMK SC5AC3 SLP160 DENSITY ALT 100FT=
CYVR 270400Z 10010KT 20SM FEW031 SCT044 BKN075 16/15 A3000 RMK SC2SC2AC3 SLP160 DENSITY ALT 100FT=
CYVR 270321Z 11010KT 20SM FEW008 SCT016 BKN055 BKN063 17/15 A2999 RMK SF1SC3SC2SC1 SLP158 DENSITY ALT 200FT=
CYVR 270300Z 09008KT 20SM FEW015 SCT031 BKN050 BKN160 17/15 A2999 RMK SC1SC2SC3AC1 VSBY LWR N CF ASOCTD SLP158 DENSITY ALT 200FT=
CYVR 270200Z 08008KT 15SM SCT012 BKN035 BKN160 17/15 A3000 RMK SC4SC1AC2 VSBY LWR N SLP159 DENSITY ALT 200FT=
CYVR 270100Z 10010KT 15SM FEW010 OVC032 17/15 A3001 RMK CU1SC7 SLP165 DENSITY ALT 100FT=
CYVR 270045Z 08008KT 15SM FEW008 OVC034 17/15 A3002 RMK CU2SC6 SLP167 DENSITY ALT 100FT=
CYVR 270025Z 09008KT 15SM -RA SCT009 OVC035 16/15 A3003 RMK CF3SC5 CU ASOCTD SLP169 DENSITY ALT 100FT=
CYVR 270000Z 09009KT 13SM SCT008 OVC036 16/15 A3003 RMK CF4SC4 SLP170 DENSITY ALT 100FT=
Aircraft Registration Data
Registration mark
C-FOJZ
Country of Registration
Canada
Date of Registration
Piejcmfncmfphgm Subscribe to unlock
Certification Basis
Ghhnf ipkfilAkhphjmfA niqfqq hAigkngfpikpflbfi Subscribe to unlock
TCDS Ident. No.
Manufacturer
Bombardier
Aircraft Model / Type
CL-600-2D24 (Series 900)
ICAO Aircraft Type
CRJ9
Year of Manufacture
Serial Number
Aircraft Address / Mode S Code (HEX)
Maximum Take off Mass (MTOM) [kg]
Engine Count
Engine Type
Main Owner
JfdcfnlchnmmAqngnkfbmlpcfcigjekm mpiljdbp qkqjpcncchhj Abqgmdfcbfijfqhcmb kqp fefpklcmdnb hljkcAh kgdmbh kcelkkdl Subscribe to unlock

Aircraft registration data reproduced and distributed with the permission of the Government of Canada.

Incident Facts

Date of incident
Aug 27, 2021

Classification
Accident

Flight number
QK-8485

Aircraft Registration
C-FOJZ

ICAO Type Designator
CRJ9

Airport ICAO Code
CYVR

This article is published under license from Avherald.com. © of text by Avherald.com.
Article source

You can read 2 more free articles without a subscription.

Subscribe now and continue reading without any limits!

Are you a subscriber? Login
Subscribe

Read unlimited articles and receive our daily update briefing. Gain better insights into what is happening in commercial aviation safety.

Send tip

Support AeroInside by sending a small tip amount.

Related articles

Newest articles

Subscribe today

Are you researching aviation incidents? Get access to AeroInside Insights, unlimited read access and receive the daily newsletter.

Pick your plan and subscribe

Partner

Blockaviation logo

A new way to document and demonstrate airworthiness compliance and aircraft value. Find out more.

ELITE Logo

ELITE Simulation Solutions is a leading global provider of Flight Simulation Training Devices, IFR training software as well as flight controls and related services. Find out more.

Blue Altitude Logo

Your regulation partner, specialists in aviation safety and compliance; providing training, auditing, and consultancy services. Find out more.

AeroInside Blog
Popular aircraft
Airbus A320
Boeing 737-800
Boeing 737-800 MAX
Popular airlines
American Airlines
United
Delta
Air Canada
Lufthansa
British Airways